sensor_id;sensor_type;location;lat;lon;timestamp;temperature;humidity
51863;DHT22;37900;52.996;6.278;2023-03-14T00:01:47;16.90;82.30
51863;DHT22;37900;52.996;6.278;2023-03-14T00:04:14;16.90;82.30
51863;DHT22;37900;52.996;6.278;2023-03-14T00:06:40;16.90;82.30
51863;DHT22;37900;52.996;6.278;2023-03-14T00:09:06;16.90;82.20
51863;DHT22;37900;52.996;6.278;2023-03-14T00:11:32;16.90;82.10
51863;DHT22;37900;52.996;6.278;2023-03-14T00:13:58;16.90;82.10
51863;DHT22;37900;52.996;6.278;2023-03-14T00:16:25;16.90;82.10
51863;DHT22;37900;52.996;6.278;2023-03-14T00:18:50;16.90;82.10
51863;DHT22;37900;52.996;6.278;2023-03-14T00:21:16;16.90;82.00
51863;DHT22;37900;52.996;6.278;2023-03-14T00:23:43;16.90;81.90
51863;DHT22;37900;52.996;6.278;2023-03-14T00:26:11;16.90;81.90
51863;DHT22;37900;52.996;6.278;2023-03-14T00:28:38;16.90;81.80
51863;DHT22;37900;52.996;6.278;2023-03-14T00:31:05;16.80;81.70
51863;DHT22;37900;52.996;6.278;2023-03-14T00:33:32;16.90;81.70
51863;DHT22;37900;52.996;6.278;2023-03-14T00:36:01;16.90;81.70
51863;DHT22;37900;52.996;6.278;2023-03-14T00:38:27;16.80;81.60
51863;DHT22;37900;52.996;6.278;2023-03-14T00:40:53;16.90;81.70
51863;DHT22;37900;52.996;6.278;2023-03-14T00:43:20;16.90;81.60
51863;DHT22;37900;52.996;6.278;2023-03-14T00:45:50;16.80;81.50
51863;DHT22;37900;52.996;6.278;2023-03-14T00:48:17;16.80;82.10
51863;DHT22;37900;52.996;6.278;2023-03-14T00:50:44;16.80;81.40
51863;DHT22;37900;52.996;6.278;2023-03-14T00:53:10;16.80;81.40
51863;DHT22;37900;52.996;6.278;2023-03-14T00:55:40;16.80;81.40
51863;DHT22;37900;52.996;6.278;2023-03-14T00:58:06;16.90;81.40
51863;DHT22;37900;52.996;6.278;2023-03-14T01:00:32;16.80;81.30
51863;DHT22;37900;52.996;6.278;2023-03-14T01:02:58;16.80;81.20
51863;DHT22;37900;52.996;6.278;2023-03-14T01:05:23;16.80;81.20
51863;DHT22;37900;52.996;6.278;2023-03-14T01:07:49;16.80;81.20
51863;DHT22;37900;52.996;6.278;2023-03-14T01:10:15;16.80;81.20
51863;DHT22;37900;52.996;6.278;2023-03-14T01:12:41;16.80;81.10
51863;DHT22;37900;52.996;6.278;2023-03-14T01:15:07;16.80;81.00
51863;DHT22;37900;52.996;6.278;2023-03-14T01:17:33;16.80;81.00
51863;DHT22;37900;52.996;6.278;2023-03-14T01:19:59;16.80;81.00
51863;DHT22;37900;52.996;6.278;2023-03-14T01:22:25;16.80;81.00
51863;DHT22;37900;52.996;6.278;2023-03-14T01:24:51;16.70;80.80
51863;DHT22;37900;52.996;6.278;2023-03-14T01:27:17;16.80;80.90
51863;DHT22;37900;52.996;6.278;2023-03-14T01:29:42;16.80;80.80
51863;DHT22;37900;52.996;6.278;2023-03-14T01:32:08;16.70;80.80
51863;DHT22;37900;52.996;6.278;2023-03-14T01:34:34;16.80;80.80
51863;DHT22;37900;52.996;6.278;2023-03-14T01:37:00;16.70;80.70
51863;DHT22;37900;52.996;6.278;2023-03-14T01:39:25;16.80;80.70
51863;DHT22;37900;52.996;6.278;2023-03-14T01:41:51;16.70;80.60
51863;DHT22;37900;52.996;6.278;2023-03-14T01:44:17;16.70;80.60
51863;DHT22;37900;52.996;6.278;2023-03-14T01:46:44;16.70;80.60
51863;DHT22;37900;52.996;6.278;2023-03-14T01:49:31;16.70;80.60
51863;DHT22;37900;52.996;6.278;2023-03-14T01:52:09;16.70;80.50
51863;DHT22;37900;52.996;6.278;2023-03-14T01:54:50;16.70;80.50
51863;DHT22;37900;52.996;6.278;2023-03-14T02:00:09;16.70;80.40
51863;DHT22;37900;52.996;6.278;2023-03-14T02:02:38;16.70;80.40
51863;DHT22;37900;52.996;6.278;2023-03-14T02:05:05;16.70;80.40
51863;DHT22;37900;52.996;6.278;2023-03-14T02:07:58;16.70;80.30
51863;DHT22;37900;52.996;6.278;2023-03-14T02:10:37;16.70;80.30
51863;DHT22;37900;52.996;6.278;2023-03-14T02:13:05;16.70;80.30
51863;DHT22;37900;52.996;6.278;2023-03-14T02:15:32;16.70;80.30
51863;DHT22;37900;52.996;6.278;2023-03-14T02:17:58;16.70;80.20
51863;DHT22;37900;52.996;6.278;2023-03-14T02:22:50;16.70;80.20
51863;DHT22;37900;52.996;6.278;2023-03-14T02:25:42;16.60;80.10
51863;DHT22;37900;52.996;6.278;2023-03-14T02:28:06;16.70;80.10
51863;DHT22;37900;52.996;6.278;2023-03-14T02:30:32;16.70;80.10
51863;DHT22;37900;52.996;6.278;2023-03-14T02:33:13;16.60;80.00
51863;DHT22;37900;52.996;6.278;2023-03-14T02:35:59;16.70;80.10
51863;DHT22;37900;52.996;6.278;2023-03-14T02:41:17;16.70;80.00
51863;DHT22;37900;52.996;6.278;2023-03-14T02:43:43;16.60;79.90
51863;DHT22;37900;52.996;6.278;2023-03-14T02:46:11;16.70;80.00
51863;DHT22;37900;52.996;6.278;2023-03-14T02:48:45;16.60;79.90
51863;DHT22;37900;52.996;6.278;2023-03-14T02:51:13;16.60;79.80
51863;DHT22;37900;52.996;6.278;2023-03-14T02:53:40;16.60;79.80
51863;DHT22;37900;52.996;6.278;2023-03-14T02:56:07;16.70;79.80
51863;DHT22;37900;52.996;6.278;2023-03-14T02:58:33;16.60;79.80
51863;DHT22;37900;52.996;6.278;2023-03-14T03:00:59;16.60;79.80
51863;DHT22;37900;52.996;6.278;2023-03-14T03:03:25;16.60;79.80
51863;DHT22;37900;52.996;6.278;2023-03-14T03:05:52;16.60;79.70
51863;DHT22;37900;52.996;6.278;2023-03-14T03:08:19;16.60;79.80
51863;DHT22;37900;52.996;6.278;2023-03-14T03:10:45;16.60;79.70
51863;DHT22;37900;52.996;6.278;2023-03-14T03:13:12;16.60;79.60
51863;DHT22;37900;52.996;6.278;2023-03-14T03:15:37;16.60;79.70
51863;DHT22;37900;52.996;6.278;2023-03-14T03:18:03;16.60;79.70
51863;DHT22;37900;52.996;6.278;2023-03-14T03:20:29;16.60;79.60
51863;DHT22;37900;52.996;6.278;2023-03-14T03:22:55;16.60;79.60
51863;DHT22;37900;52.996;6.278;2023-03-14T03:25:21;16.60;79.60
51863;DHT22;37900;52.996;6.278;2023-03-14T03:27:47;16.60;79.60
51863;DHT22;37900;52.996;6.278;2023-03-14T03:30:13;16.60;79.60
51863;DHT22;37900;52.996;6.278;2023-03-14T03:32:38;16.60;79.50
51863;DHT22;37900;52.996;6.278;2023-03-14T03:35:05;16.60;79.60
51863;DHT22;37900;52.996;6.278;2023-03-14T03:37:32;16.60;79.50
51863;DHT22;37900;52.996;6.278;2023-03-14T03:39:58;16.60;79.50
51863;DHT22;37900;52.996;6.278;2023-03-14T03:42:25;16.60;79.50
51863;DHT22;37900;52.996;6.278;2023-03-14T03:44:51;16.60;79.40
51863;DHT22;37900;52.996;6.278;2023-03-14T03:47:17;16.50;79.30
51863;DHT22;37900;52.996;6.278;2023-03-14T03:49:42;16.50;79.40
51863;DHT22;37900;52.996;6.278;2023-03-14T03:52:08;16.50;79.40
51863;DHT22;37900;52.996;6.278;2023-03-14T03:54:35;16.50;79.30
51863;DHT22;37900;52.996;6.278;2023-03-14T03:57:00;16.50;79.30
51863;DHT22;37900;52.996;6.278;2023-03-14T03:59:26;16.60;79.30
51863;DHT22;37900;52.996;6.278;2023-03-14T04:01:52;16.50;79.30
51863;DHT22;37900;52.996;6.278;2023-03-14T04:04:18;16.60;79.30
51863;DHT22;37900;52.996;6.278;2023-03-14T04:06:43;16.50;79.30
51863;DHT22;37900;52.996;6.278;2023-03-14T04:09:10;16.50;79.20
51863;DHT22;37900;52.996;6.278;2023-03-14T04:11:36;16.50;79.20
51863;DHT22;37900;52.996;6.278;2023-03-14T04:14:02;16.50;79.20
51863;DHT22;37900;52.996;6.278;2023-03-14T04:16:28;16.50;79.20
51863;DHT22;37900;52.996;6.278;2023-03-14T04:18:57;16.50;79.20
51863;DHT22;37900;52.996;6.278;2023-03-14T04:21:23;16.50;79.10
51863;DHT22;37900;52.996;6.278;2023-03-14T04:23:49;16.50;79.10
51863;DHT22;37900;52.996;6.278;2023-03-14T04:26:15;16.50;79.10
51863;DHT22;37900;52.996;6.278;2023-03-14T04:28:41;16.50;79.10
51863;DHT22;37900;52.996;6.278;2023-03-14T04:31:09;16.50;79.00
51863;DHT22;37900;52.996;6.278;2023-03-14T04:33:35;16.50;79.10
51863;DHT22;37900;52.996;6.278;2023-03-14T04:36:03;16.50;79.00
51863;DHT22;37900;52.996;6.278;2023-03-14T04:38:29;16.50;79.00
51863;DHT22;37900;52.996;6.278;2023-03-14T04:40:55;16.50;79.00
51863;DHT22;37900;52.996;6.278;2023-03-14T04:43:21;16.50;79.00
51863;DHT22;37900;52.996;6.278;2023-03-14T04:45:46;16.50;79.00
51863;DHT22;37900;52.996;6.278;2023-03-14T04:48:13;16.50;79.00
51863;DHT22;37900;52.996;6.278;2023-03-14T04:50:39;16.50;79.00
51863;DHT22;37900;52.996;6.278;2023-03-14T04:53:05;16.50;78.90
51863;DHT22;37900;52.996;6.278;2023-03-14T04:55:32;16.50;78.90
51863;DHT22;37900;52.996;6.278;2023-03-14T04:57:58;16.40;78.80
51863;DHT22;37900;52.996;6.278;2023-03-14T05:00:24;16.40;78.80
51863;DHT22;37900;52.996;6.278;2023-03-14T05:02:50;16.40;78.80
51863;DHT22;37900;52.996;6.278;2023-03-14T05:05:16;16.50;78.80
51863;DHT22;37900;52.996;6.278;2023-03-14T05:07:42;16.50;78.90
51863;DHT22;37900;52.996;6.278;2023-03-14T05:10:10;16.50;78.80
51863;DHT22;37900;52.996;6.278;2023-03-14T05:12:36;16.40;79.40
51863;DHT22;37900;52.996;6.278;2023-03-14T05:15:02;16.40;78.80
51863;DHT22;37900;52.996;6.278;2023-03-14T05:17:27;16.40;78.80
51863;DHT22;37900;52.996;6.278;2023-03-14T05:19:53;16.40;78.80
51863;DHT22;37900;52.996;6.278;2023-03-14T05:22:19;16.40;78.70
51863;DHT22;37900;52.996;6.278;2023-03-14T05:24:44;16.40;78.70
51863;DHT22;37900;52.996;6.278;2023-03-14T05:27:10;16.40;78.70
51863;DHT22;37900;52.996;6.278;2023-03-14T05:29:36;16.40;78.70
51863;DHT22;37900;52.996;6.278;2023-03-14T05:32:01;16.40;78.60
51863;DHT22;37900;52.996;6.278;2023-03-14T05:34:27;16.40;78.60
51863;DHT22;37900;52.996;6.278;2023-03-14T05:36:53;16.40;78.60
51863;DHT22;37900;52.996;6.278;2023-03-14T05:39:19;16.40;78.70
51863;DHT22;37900;52.996;6.278;2023-03-14T05:41:44;16.40;78.70
51863;DHT22;37900;52.996;6.278;2023-03-14T05:44:10;16.40;78.60
51863;DHT22;37900;52.996;6.278;2023-03-14T05:46:36;16.40;78.60
51863;DHT22;37900;52.996;6.278;2023-03-14T05:49:01;16.40;78.60
51863;DHT22;37900;52.996;6.278;2023-03-14T05:51:27;16.40;78.60
51863;DHT22;37900;52.996;6.278;2023-03-14T05:53:53;16.40;78.60
51863;DHT22;37900;52.996;6.278;2023-03-14T05:56:18;16.40;78.60
51863;DHT22;37900;52.996;6.278;2023-03-14T05:58:44;16.40;78.60
51863;DHT22;37900;52.996;6.278;2023-03-14T06:01:10;16.40;78.60
51863;DHT22;37900;52.996;6.278;2023-03-14T06:03:35;16.40;78.60
51863;DHT22;37900;52.996;6.278;2023-03-14T06:06:01;16.40;78.50
51863;DHT22;37900;52.996;6.278;2023-03-14T06:08:27;16.40;78.50
51863;DHT22;37900;52.996;6.278;2023-03-14T06:10:54;16.40;78.50
51863;DHT22;37900;52.996;6.278;2023-03-14T06:13:20;16.30;78.50
51863;DHT22;37900;52.996;6.278;2023-03-14T06:15:46;16.30;78.50
51863;DHT22;37900;52.996;6.278;2023-03-14T06:18:11;16.30;78.50
51863;DHT22;37900;52.996;6.278;2023-03-14T06:20:38;16.30;78.50
51863;DHT22;37900;52.996;6.278;2023-03-14T06:23:08;16.40;78.50
51863;DHT22;37900;52.996;6.278;2023-03-14T06:25:35;16.30;78.40
51863;DHT22;37900;52.996;6.278;2023-03-14T06:28:01;16.30;78.40
51863;DHT22;37900;52.996;6.278;2023-03-14T06:30:27;16.30;78.40
51863;DHT22;37900;52.996;6.278;2023-03-14T06:32:53;16.30;78.40
51863;DHT22;37900;52.996;6.278;2023-03-14T06:35:19;16.30;78.40
51863;DHT22;37900;52.996;6.278;2023-03-14T06:37:44;16.30;78.40
51863;DHT22;37900;52.996;6.278;2023-03-14T06:40:11;16.30;78.40
51863;DHT22;37900;52.996;6.278;2023-03-14T06:42:46;16.30;78.40
51863;DHT22;37900;52.996;6.278;2023-03-14T06:45:12;16.30;78.40
51863;DHT22;37900;52.996;6.278;2023-03-14T06:47:38;16.30;78.40
51863;DHT22;37900;52.996;6.278;2023-03-14T06:50:05;16.30;78.40
51863;DHT22;37900;52.996;6.278;2023-03-14T06:52:31;16.30;78.40
51863;DHT22;37900;52.996;6.278;2023-03-14T06:54:57;16.30;78.30
51863;DHT22;37900;52.996;6.278;2023-03-14T06:57:22;16.30;78.40
51863;DHT22;37900;52.996;6.278;2023-03-14T06:59:48;16.30;78.50
51863;DHT22;37900;52.996;6.278;2023-03-14T07:02:14;16.30;78.80
51863;DHT22;37900;52.996;6.278;2023-03-14T07:04:40;16.30;79.10
51863;DHT22;37900;52.996;6.278;2023-03-14T07:07:06;16.30;79.30
51863;DHT22;37900;52.996;6.278;2023-03-14T07:09:33;16.30;79.30
51863;DHT22;37900;52.996;6.278;2023-03-14T07:11:58;16.30;79.50
51863;DHT22;37900;52.996;6.278;2023-03-14T07:14:24;16.30;79.60
51863;DHT22;37900;52.996;6.278;2023-03-14T07:16:50;16.30;79.70
51863;DHT22;37900;52.996;6.278;2023-03-14T07:19:16;16.40;79.90
51863;DHT22;37900;52.996;6.278;2023-03-14T07:21:41;16.40;80.60
51863;DHT22;37900;52.996;6.278;2023-03-14T07:24:07;16.30;80.00
51863;DHT22;37900;52.996;6.278;2023-03-14T07:26:33;16.40;80.20
51863;DHT22;37900;52.996;6.278;2023-03-14T07:28:59;16.40;80.30
51863;DHT22;37900;52.996;6.278;2023-03-14T07:31:25;16.40;80.30
51863;DHT22;37900;52.996;6.278;2023-03-14T07:33:50;16.40;80.30
51863;DHT22;37900;52.996;6.278;2023-03-14T07:36:16;16.40;80.30
51863;DHT22;37900;52.996;6.278;2023-03-14T07:38:42;16.30;80.30
51863;DHT22;37900;52.996;6.278;2023-03-14T07:41:08;16.30;80.30
51863;DHT22;37900;52.996;6.278;2023-03-14T07:43:34;16.30;80.30
51863;DHT22;37900;52.996;6.278;2023-03-14T07:46:00;16.30;80.30
51863;DHT22;37900;52.996;6.278;2023-03-14T07:48:26;16.30;80.30
51863;DHT22;37900;52.996;6.278;2023-03-14T07:50:53;16.30;80.20
51863;DHT22;37900;52.996;6.278;2023-03-14T07:53:20;16.30;80.30
51863;DHT22;37900;52.996;6.278;2023-03-14T07:55:46;16.30;80.20
51863;DHT22;37900;52.996;6.278;2023-03-14T07:58:12;16.30;80.20
51863;DHT22;37900;52.996;6.278;2023-03-14T08:00:38;16.30;80.20
51863;DHT22;37900;52.996;6.278;2023-03-14T08:03:04;16.30;80.20
51863;DHT22;37900;52.996;6.278;2023-03-14T08:05:30;16.30;80.10
51863;DHT22;37900;52.996;6.278;2023-03-14T08:07:55;16.30;80.10
51863;DHT22;37900;52.996;6.278;2023-03-14T08:10:21;16.30;80.00
51863;DHT22;37900;52.996;6.278;2023-03-14T08:12:52;16.30;80.00
51863;DHT22;37900;52.996;6.278;2023-03-14T08:15:19;16.30;80.00
51863;DHT22;37900;52.996;6.278;2023-03-14T08:17:45;16.30;79.90
51863;DHT22;37900;52.996;6.278;2023-03-14T08:20:11;16.20;79.80
51863;DHT22;37900;52.996;6.278;2023-03-14T08:22:38;16.20;79.80
51863;DHT22;37900;52.996;6.278;2023-03-14T08:25:04;16.20;79.80
51863;DHT22;37900;52.996;6.278;2023-03-14T08:27:30;16.20;79.70
51863;DHT22;37900;52.996;6.278;2023-03-14T08:29:55;16.10;79.60
51863;DHT22;37900;52.996;6.278;2023-03-14T08:32:21;16.20;80.30
51863;DHT22;37900;52.996;6.278;2023-03-14T08:34:49;16.20;79.60
51863;DHT22;37900;52.996;6.278;2023-03-14T08:37:14;16.20;79.50
51863;DHT22;37900;52.996;6.278;2023-03-14T08:39:40;16.20;79.50
51863;DHT22;37900;52.996;6.278;2023-03-14T08:42:06;16.20;79.50
51863;DHT22;37900;52.996;6.278;2023-03-14T08:44:32;16.20;79.50
51863;DHT22;37900;52.996;6.278;2023-03-14T08:46:58;16.20;79.50
51863;DHT22;37900;52.996;6.278;2023-03-14T08:49:23;16.20;79.50
51863;DHT22;37900;52.996;6.278;2023-03-14T08:51:49;16.20;79.50
51863;DHT22;37900;52.996;6.278;2023-03-14T08:54:15;16.20;79.50
51863;DHT22;37900;52.996;6.278;2023-03-14T08:56:40;16.20;79.50
51863;DHT22;37900;52.996;6.278;2023-03-14T08:59:09;16.20;79.50
51863;DHT22;37900;52.996;6.278;2023-03-14T09:01:36;16.20;79.50
51863;DHT22;37900;52.996;6.278;2023-03-14T09:04:02;16.20;79.40
51863;DHT22;37900;52.996;6.278;2023-03-14T09:06:28;16.20;79.40
51863;DHT22;37900;52.996;6.278;2023-03-14T09:08:53;16.20;79.40
51863;DHT22;37900;52.996;6.278;2023-03-14T09:11:19;16.20;79.40
51863;DHT22;37900;52.996;6.278;2023-03-14T09:13:45;16.20;79.40
51863;DHT22;37900;52.996;6.278;2023-03-14T09:16:11;16.20;79.40
51863;DHT22;37900;52.996;6.278;2023-03-14T09:18:37;16.20;79.40
51863;DHT22;37900;52.996;6.278;2023-03-14T09:21:03;16.20;79.40
51863;DHT22;37900;52.996;6.278;2023-03-14T09:23:28;16.20;79.40
51863;DHT22;37900;52.996;6.278;2023-03-14T09:25:57;16.20;79.40
51863;DHT22;37900;52.996;6.278;2023-03-14T09:28:24;16.20;79.30
51863;DHT22;37900;52.996;6.278;2023-03-14T09:30:49;16.20;79.30
51863;DHT22;37900;52.996;6.278;2023-03-14T09:33:16;16.20;79.30
51863;DHT22;37900;52.996;6.278;2023-03-14T09:35:42;16.20;79.30
51863;DHT22;37900;52.996;6.278;2023-03-14T09:38:07;16.20;79.30
51863;DHT22;37900;52.996;6.278;2023-03-14T09:40:37;16.20;79.30
51863;DHT22;37900;52.996;6.278;2023-03-14T09:43:03;16.10;79.10
51863;DHT22;37900;52.996;6.278;2023-03-14T09:45:35;16.20;79.30
51863;DHT22;37900;52.996;6.278;2023-03-14T09:48:03;16.10;79.20
51863;DHT22;37900;52.996;6.278;2023-03-14T09:51:16;16.20;79.20
51863;DHT22;37900;52.996;6.278;2023-03-14T09:53:40;16.20;79.20
51863;DHT22;37900;52.996;6.278;2023-03-14T09:56:31;16.10;79.10
51863;DHT22;37900;52.996;6.278;2023-03-14T09:59:03;16.10;79.10
51863;DHT22;37900;52.996;6.278;2023-03-14T10:01:33;16.10;79.10
51863;DHT22;37900;52.996;6.278;2023-03-14T10:04:04;16.10;79.10
51863;DHT22;37900;52.996;6.278;2023-03-14T10:06:32;16.10;79.00
51863;DHT22;37900;52.996;6.278;2023-03-14T10:08:58;16.10;79.00
51863;DHT22;37900;52.996;6.278;2023-03-14T10:11:24;16.10;79.00
51863;DHT22;37900;52.996;6.278;2023-03-14T10:14:09;16.10;78.90
51863;DHT22;37900;52.996;6.278;2023-03-14T10:16:41;16.10;78.90
51863;DHT22;37900;52.996;6.278;2023-03-14T10:19:10;16.10;78.90
51863;DHT22;37900;52.996;6.278;2023-03-14T10:21:50;16.10;78.90
51863;DHT22;37900;52.996;6.278;2023-03-14T10:24:27;16.10;78.90
51863;DHT22;37900;52.996;6.278;2023-03-14T10:27:04;16.10;78.90
51863;DHT22;37900;52.996;6.278;2023-03-14T10:29:32;16.10;78.90
51863;DHT22;37900;52.996;6.278;2023-03-14T10:32:01;16.10;78.80
51863;DHT22;37900;52.996;6.278;2023-03-14T10:34:33;16.10;78.80
51863;DHT22;37900;52.996;6.278;2023-03-14T10:37:07;16.10;78.80
51863;DHT22;37900;52.996;6.278;2023-03-14T10:39:42;16.10;79.00
51863;DHT22;37900;52.996;6.278;2023-03-14T10:42:24;16.10;79.30
51863;DHT22;37900;52.996;6.278;2023-03-14T10:44:59;16.10;80.20
51863;DHT22;37900;52.996;6.278;2023-03-14T10:47:26;16.10;79.80
51863;DHT22;37900;52.996;6.278;2023-03-14T10:49:54;16.10;79.90
51863;DHT22;37900;52.996;6.278;2023-03-14T10:52:25;16.10;80.00
51863;DHT22;37900;52.996;6.278;2023-03-14T10:55:03;16.10;80.10
51863;DHT22;37900;52.996;6.278;2023-03-14T10:57:29;16.20;80.20
51863;DHT22;37900;52.996;6.278;2023-03-14T10:59:56;16.20;80.20
51863;DHT22;37900;52.996;6.278;2023-03-14T11:02:38;16.10;80.10
51863;DHT22;37900;52.996;6.278;2023-03-14T11:05:24;16.10;80.20
51863;DHT22;37900;52.996;6.278;2023-03-14T11:07:53;16.10;80.30
51863;DHT22;37900;52.996;6.278;2023-03-14T11:10:54;16.20;80.40
51863;DHT22;37900;52.996;6.278;2023-03-14T11:13:35;16.10;80.30
51863;DHT22;37900;52.996;6.278;2023-03-14T11:26:54;16.20;80.30
51863;DHT22;37900;52.996;6.278;2023-03-14T11:29:28;16.10;80.30
51863;DHT22;37900;52.996;6.278;2023-03-14T11:32:02;16.10;80.30
51863;DHT22;37900;52.996;6.278;2023-03-14T11:34:44;16.10;80.30
51863;DHT22;37900;52.996;6.278;2023-03-14T11:37:22;16.10;80.40
51863;DHT22;37900;52.996;6.278;2023-03-14T11:40:18;16.10;80.50
51863;DHT22;37900;52.996;6.278;2023-03-14T11:42:56;16.20;80.70
51863;DHT22;37900;52.996;6.278;2023-03-14T11:45:43;16.20;80.70
51863;DHT22;37900;52.996;6.278;2023-03-14T11:51:15;16.40;81.00
51863;DHT22;37900;52.996;6.278;2023-03-14T11:53:58;16.30;81.00
51863;DHT22;37900;52.996;6.278;2023-03-14T11:56:57;16.40;81.10
51863;DHT22;37900;52.996;6.278;2023-03-14T12:05:25;16.50;80.90
51863;DHT22;37900;52.996;6.278;2023-03-14T12:10:50;16.40;80.80
51863;DHT22;37900;52.996;6.278;2023-03-14T12:13:17;16.40;80.70
51863;DHT22;37900;52.996;6.278;2023-03-14T12:15:58;16.40;80.70
51863;DHT22;37900;52.996;6.278;2023-03-14T12:18:36;16.40;80.80
51863;DHT22;37900;52.996;6.278;2023-03-14T12:21:11;16.40;80.80
51863;DHT22;37900;52.996;6.278;2023-03-14T12:23:55;16.40;80.80
51863;DHT22;37900;52.996;6.278;2023-03-14T12:26:27;16.40;81.00
51863;DHT22;37900;52.996;6.278;2023-03-14T12:41:53;16.60;81.10
51863;DHT22;37900;52.996;6.278;2023-03-14T12:46:57;16.60;81.10
51863;DHT22;37900;52.996;6.278;2023-03-14T12:49:29;16.60;81.10
51863;DHT22;37900;52.996;6.278;2023-03-14T12:52:00;16.60;81.10
51863;DHT22;37900;52.996;6.278;2023-03-14T12:59:36;16.60;81.10
51863;DHT22;37900;52.996;6.278;2023-03-14T13:07:13;16.60;81.30
51863;DHT22;37900;52.996;6.278;2023-03-14T13:10:03;16.60;81.30
51863;DHT22;37900;52.996;6.278;2023-03-14T13:12:38;16.60;81.50
51863;DHT22;37900;52.996;6.278;2023-03-14T13:15:18;16.60;81.60
51863;DHT22;37900;52.996;6.278;2023-03-14T13:17:46;16.70;81.70
51863;DHT22;37900;52.996;6.278;2023-03-14T13:20:19;16.70;81.60
51863;DHT22;37900;52.996;6.278;2023-03-14T13:22:48;16.70;81.50
51863;DHT22;37900;52.996;6.278;2023-03-14T13:25:15;16.70;81.50
51863;DHT22;37900;52.996;6.278;2023-03-14T13:27:42;16.70;81.50
51863;DHT22;37900;52.996;6.278;2023-03-14T13:30:23;16.80;81.50
51863;DHT22;37900;52.996;6.278;2023-03-14T13:32:51;16.80;81.60
51863;DHT22;37900;52.996;6.278;2023-03-14T13:35:25;16.80;81.60
51863;DHT22;37900;52.996;6.278;2023-03-14T13:37:59;16.70;81.50
51863;DHT22;37900;52.996;6.278;2023-03-14T13:40:32;16.80;81.60
51863;DHT22;37900;52.996;6.278;2023-03-14T13:43:05;16.80;81.60
51863;DHT22;37900;52.996;6.278;2023-03-14T13:45:31;16.80;81.60
51863;DHT22;37900;52.996;6.278;2023-03-14T13:48:09;16.80;81.60
51863;DHT22;37900;52.996;6.278;2023-03-14T13:50:36;16.80;81.60
51863;DHT22;37900;52.996;6.278;2023-03-14T13:53:02;16.80;81.60
51863;DHT22;37900;52.996;6.278;2023-03-14T13:55:29;16.80;81.60
51863;DHT22;37900;52.996;6.278;2023-03-14T13:57:55;16.80;82.30
51863;DHT22;37900;52.996;6.278;2023-03-14T14:00:26;16.80;81.60
51863;DHT22;37900;52.996;6.278;2023-03-14T14:02:57;16.80;81.60
51863;DHT22;37900;52.996;6.278;2023-03-14T14:05:27;16.80;81.70
51863;DHT22;37900;52.996;6.278;2023-03-14T14:07:53;16.80;81.70
51863;DHT22;37900;52.996;6.278;2023-03-14T14:10:20;16.80;81.70
51863;DHT22;37900;52.996;6.278;2023-03-14T14:13:00;16.80;81.80
51863;DHT22;37900;52.996;6.278;2023-03-14T14:15:29;16.80;81.80
51863;DHT22;37900;52.996;6.278;2023-03-14T14:18:09;16.80;81.90
51863;DHT22;37900;52.996;6.278;2023-03-14T14:20:41;16.80;82.10
51863;DHT22;37900;52.996;6.278;2023-03-14T14:23:14;16.90;82.10
51863;DHT22;37900;52.996;6.278;2023-03-14T14:25:40;16.90;82.00
51863;DHT22;37900;52.996;6.278;2023-03-14T14:28:34;16.90;81.90
51863;DHT22;37900;52.996;6.278;2023-03-14T14:33:38;16.90;81.90
51863;DHT22;37900;52.996;6.278;2023-03-14T14:36:11;16.90;81.80
51863;DHT22;37900;52.996;6.278;2023-03-14T14:38:39;16.90;81.80
51863;DHT22;37900;52.996;6.278;2023-03-14T14:41:05;16.90;81.80
51863;DHT22;37900;52.996;6.278;2023-03-14T14:43:33;16.90;81.80
51863;DHT22;37900;52.996;6.278;2023-03-14T14:46:06;16.90;81.80
51863;DHT22;37900;52.996;6.278;2023-03-14T14:48:37;16.90;81.80
51863;DHT22;37900;52.996;6.278;2023-03-14T14:51:05;16.90;81.80
51863;DHT22;37900;52.996;6.278;2023-03-14T14:56:45;16.90;81.80
51863;DHT22;37900;52.996;6.278;2023-03-14T14:59:25;16.90;81.70
51863;DHT22;37900;52.996;6.278;2023-03-14T15:01:56;16.80;81.70
51863;DHT22;37900;52.996;6.278;2023-03-14T15:04:22;16.80;81.70
51863;DHT22;37900;52.996;6.278;2023-03-14T15:06:50;16.80;81.70
51863;DHT22;37900;52.996;6.278;2023-03-14T15:09:16;16.80;81.70
51863;DHT22;37900;52.996;6.278;2023-03-14T15:11:43;16.80;81.70
51863;DHT22;37900;52.996;6.278;2023-03-14T15:14:09;16.80;81.60
51863;DHT22;37900;52.996;6.278;2023-03-14T15:16:34;16.80;81.60
51863;DHT22;37900;52.996;6.278;2023-03-14T15:19:05;16.80;81.60
51863;DHT22;37900;52.996;6.278;2023-03-14T15:21:31;16.80;81.70
51863;DHT22;37900;52.996;6.278;2023-03-14T15:23:58;16.80;81.70
51863;DHT22;37900;52.996;6.278;2023-03-14T15:26:25;16.80;81.80
51863;DHT22;37900;52.996;6.278;2023-03-14T15:28:52;16.80;81.80
51863;DHT22;37900;52.996;6.278;2023-03-14T15:31:18;16.90;81.90
51863;DHT22;37900;52.996;6.278;2023-03-14T15:33:45;16.90;81.80
51863;DHT22;37900;52.996;6.278;2023-03-14T15:36:27;16.90;81.70
51863;DHT22;37900;52.996;6.278;2023-03-14T15:38:54;16.90;81.70
51863;DHT22;37900;52.996;6.278;2023-03-14T15:41:21;16.90;81.60
51863;DHT22;37900;52.996;6.278;2023-03-14T15:43:47;16.90;81.60
51863;DHT22;37900;52.996;6.278;2023-03-14T15:46:13;16.90;81.50
51863;DHT22;37900;52.996;6.278;2023-03-14T15:48:40;16.90;81.60
51863;DHT22;37900;52.996;6.278;2023-03-14T15:51:06;16.90;81.50
51863;DHT22;37900;52.996;6.278;2023-03-14T15:53:33;16.90;81.50
51863;DHT22;37900;52.996;6.278;2023-03-14T15:55:59;16.90;81.40
51863;DHT22;37900;52.996;6.278;2023-03-14T15:58:25;16.90;81.50
51863;DHT22;37900;52.996;6.278;2023-03-14T16:00:51;16.90;81.40
51863;DHT22;37900;52.996;6.278;2023-03-14T16:03:17;16.80;81.40
51863;DHT22;37900;52.996;6.278;2023-03-14T16:05:43;16.80;81.30
51863;DHT22;37900;52.996;6.278;2023-03-14T16:08:08;16.80;81.30
51863;DHT22;37900;52.996;6.278;2023-03-14T16:10:34;16.80;81.30
51863;DHT22;37900;52.996;6.278;2023-03-14T16:13:00;16.80;81.30
51863;DHT22;37900;52.996;6.278;2023-03-14T16:15:26;16.80;81.30
51863;DHT22;37900;52.996;6.278;2023-03-14T16:17:55;16.80;81.30
51863;DHT22;37900;52.996;6.278;2023-03-14T16:20:22;16.80;81.40
51863;DHT22;37900;52.996;6.278;2023-03-14T16:22:48;16.80;81.50
51863;DHT22;37900;52.996;6.278;2023-03-14T16:25:14;16.90;81.50
51863;DHT22;37900;52.996;6.278;2023-03-14T16:27:40;16.90;81.50
51863;DHT22;37900;52.996;6.278;2023-03-14T16:30:07;16.90;81.40
51863;DHT22;37900;52.996;6.278;2023-03-14T16:32:33;16.90;81.40
51863;DHT22;37900;52.996;6.278;2023-03-14T16:35:00;16.90;81.30
51863;DHT22;37900;52.996;6.278;2023-03-14T16:37:26;16.90;81.20
51863;DHT22;37900;52.996;6.278;2023-03-14T16:39:53;16.90;81.20
51863;DHT22;37900;52.996;6.278;2023-03-14T16:42:19;16.80;81.10